Time;durP1;ratioP1;P1;durP2;ratioP2;P2;SDS_P1;SDS_P2;PMS_P1;PMS_P2;Temp;Humidity;BMP_temperature;BMP_pressure;BME280_temperature;BME280_humidity;BME280_pressure;Samples;Min_cycle;Max_cycle;Signal;HPM_P1;HPM_P2
2022/08/04 00:01:06;;;;;;;4.03;2.50;;;25.40;65.10;;;;;;5044638;28;20721;-73
2022/08/04 00:03:58;;;;;;;6.10;2.80;;;25.40;65.50;;;;;;5063668;28;20218;-73
2022/08/04 00:06:48;;;;;;;4.30;2.47;;;25.40;65.60;;;;;;5054764;28;20239;-73
2022/08/04 00:09:24;;;;;;;6.87;2.87;;;25.40;65.40;;;;;;5045201;28;20536;-73
2022/08/04 00:11:56;;;;;;;5.13;3.07;;;25.30;65.40;;;;;;5045442;28;20199;-73
2022/08/04 00:14:24;;;;;;;4.73;2.43;;;25.30;65.10;;;;;;5046548;28;20212;-73
2022/08/04 00:16:53;;;;;;;4.27;2.67;;;25.20;65.50;;;;;;5052623;28;20595;-74
2022/08/04 00:19:30;;;;;;;3.77;2.67;;;25.20;65.20;;;;;;5053737;28;20526;-75
2022/08/04 00:22:01;;;;;;;4.70;2.67;;;25.20;65.40;;;;;;5039606;28;20235;-73
2022/08/04 00:24:34;;;;;;;4.43;2.00;;;25.20;65.70;;;;;;5044095;28;20237;-73
2022/08/04 00:27:02;;;;;;;4.33;2.53;;;25.20;65.50;;;;;;5050760;28;20313;-74
2022/08/04 00:29:30;;;;;;;6.80;2.83;;;25.10;65.30;;;;;;5062670;28;20206;-74
2022/08/04 00:31:58;;;;;;;5.60;2.50;;;25.10;65.40;;;;;;5033499;28;20220;-74
2022/08/04 00:34:26;;;;;;;4.90;2.67;;;25.00;65.60;;;;;;5049179;28;20213;-74
2022/08/04 00:36:55;;;;;;;4.47;2.80;;;24.90;65.80;;;;;;5044471;28;20673;-73
2022/08/04 00:39:23;;;;;;;3.40;2.67;;;24.90;66.10;;;;;;5050449;28;20675;-74
2022/08/04 00:42:28;;;;;;;3.47;2.47;;;24.80;66.30;;;;;;5054929;28;20200;-74
2022/08/04 00:45:07;;;;;;;6.80;3.03;;;24.80;66.60;;;;;;5048536;28;20233;-74
2022/08/04 00:47:43;;;;;;;6.37;2.80;;;24.70;66.80;;;;;;5052500;28;20196;-74
2022/08/04 00:50:27;;;;;;;5.07;2.77;;;24.70;67.10;;;;;;5053753;28;20252;-73
2022/08/04 00:53:05;;;;;;;7.30;3.17;;;24.70;67.10;;;;;;5041151;28;20198;-74
2022/08/04 00:55:50;;;;;;;6.07;3.33;;;24.60;67.20;;;;;;5047438;28;20853;-74
2022/08/04 00:58:30;;;;;;;6.17;3.10;;;24.60;67.30;;;;;;5053029;28;20218;-74
2022/08/04 01:01:21;;;;;;;5.63;2.90;;;24.60;67.30;;;;;;5057002;28;20227;-74
2022/08/04 01:04:15;;;;;;;6.33;3.10;;;24.60;67.30;;;;;;5063397;28;20195;-73
2022/08/04 01:07:06;;;;;;;5.83;3.00;;;24.60;67.30;;;;;;5045284;28;20203;-73
2022/08/04 01:09:36;;;;;;;9.60;3.37;;;24.50;67.40;;;;;;5041808;28;20626;-74
2022/08/04 01:12:34;;;;;;;5.33;3.00;;;24.50;67.40;;;;;;5046777;28;20632;-74
2022/08/04 01:15:06;;;;;;;6.87;3.23;;;24.50;68.00;;;;;;5048060;28;20269;-74
2022/08/04 01:17:48;;;;;;;4.03;3.30;;;24.50;67.80;;;;;;5064900;28;20242;-74
2022/08/04 01:20:20;;;;;;;4.87;2.77;;;24.50;68.00;;;;;;5060922;28;20313;-74
2022/08/04 01:23:20;;;;;;;7.23;2.90;;;24.40;68.00;;;;;;5042503;28;20572;-74
2022/08/04 01:26:32;;;;;;;5.97;2.73;;;24.40;68.00;;;;;;5047117;28;20203;-74
2022/08/04 01:29:22;;;;;;;4.30;3.17;;;24.40;67.90;;;;;;5036924;28;20202;-74
2022/08/04 01:32:01;;;;;;;4.37;3.00;;;24.30;67.90;;;;;;5042924;28;20212;-74
2022/08/04 01:34:46;;;;;;;7.23;3.23;;;24.30;68.00;;;;;;5052483;28;20596;-74
2022/08/04 01:37:23;;;;;;;6.13;2.67;;;24.30;68.10;;;;;;5043521;28;20198;-74
2022/08/04 01:40:01;;;;;;;4.70;3.13;;;24.30;68.20;;;;;;5045592;28;20253;-73
2022/08/04 01:42:32;;;;;;;3.07;2.77;;;24.30;68.50;;;;;;5046931;28;20206;-73
2022/08/04 01:45:02;;;;;;;5.70;2.87;;;24.30;68.60;;;;;;5052174;28;20195;-73
2022/08/04 01:47:30;;;;;;;7.00;3.07;;;24.20;68.70;;;;;;5051779;28;20197;-73
2022/08/04 01:50:04;;;;;;;2.53;2.33;;;24.20;69.00;;;;;;5052062;28;20204;-74
2022/08/04 01:52:34;;;;;;;7.73;3.00;;;24.10;68.90;;;;;;5047005;28;20210;-73
2022/08/04 01:55:04;;;;;;;6.47;3.50;;;24.10;69.00;;;;;;5049813;28;20269;-73
2022/08/04 01:57:35;;;;;;;6.77;3.07;;;24.10;69.20;;;;;;5042466;28;20586;-74
2022/08/04 02:00:06;;;;;;;4.30;3.40;;;24.00;69.60;;;;;;5046430;28;20258;-74
2022/08/04 02:02:33;;;;;;;8.83;3.67;;;24.00;70.00;;;;;;5042210;28;20203;-74
2022/08/04 02:05:00;;;;;;;7.00;3.37;;;23.90;70.40;;;;;;5045052;28;20195;-73
2022/08/04 02:07:54;;;;;;;5.90;3.23;;;23.90;70.10;;;;;;5043499;28;20213;-74
2022/08/04 02:10:41;;;;;;;9.27;3.03;;;23.90;69.80;;;;;;5041545;28;20205;-74
2022/08/04 02:13:11;;;;;;;8.03;3.33;;;23.90;69.80;;;;;;5045076;28;20647;-74
2022/08/04 02:15:54;;;;;;;6.20;3.40;;;23.80;70.30;;;;;;5045034;28;20807;-73
2022/08/04 02:18:48;;;;;;;6.03;4.20;;;23.80;70.80;;;;;;5044623;28;20300;-73
2022/08/04 02:21:19;;;;;;;7.30;3.77;;;23.70;71.30;;;;;;5052515;28;20252;-73
2022/08/04 02:23:54;;;;;;;6.37;4.23;;;23.70;71.40;;;;;;5041975;28;20215;-73
2022/08/04 02:26:27;;;;;;;8.93;4.00;;;23.70;71.60;;;;;;5049502;28;20199;-73
2022/08/04 02:29:20;;;;;;;5.77;3.77;;;23.70;71.60;;;;;;5040067;28;20504;-73
2022/08/04 02:32:05;;;;;;;5.37;3.20;;;23.60;71.40;;;;;;5038318;28;20207;-72
2022/08/04 02:34:42;;;;;;;8.07;4.10;;;23.60;71.80;;;;;;5049331;28;20195;-72
2022/08/04 02:37:10;;;;;;;5.93;3.47;;;23.60;71.10;;;;;;5049217;28;20276;-72
2022/08/04 02:39:43;;;;;;;9.33;3.43;;;23.60;71.20;;;;;;5045705;28;20223;-72
2022/08/04 02:42:16;;;;;;;5.43;3.60;;;23.60;71.40;;;;;;5050040;28;20210;-72
2022/08/04 02:44:49;;;;;;;4.30;3.13;;;23.60;71.60;;;;;;5040390;28;20603;-72
2022/08/04 02:47:21;;;;;;;6.33;3.17;;;23.70;71.70;;;;;;5046387;28;20191;-72
2022/08/04 02:49:50;;;;;;;5.77;3.00;;;23.60;71.30;;;;;;5058069;28;20211;-72
2022/08/04 02:52:19;;;;;;;8.60;3.27;;;23.70;70.60;;;;;;5047604;28;20206;-72
2022/08/04 02:54:52;;;;;;;6.80;4.10;;;23.70;70.60;;;;;;5061999;28;20214;-73
2022/08/04 02:57:22;;;;;;;14.73;3.87;;;23.70;71.10;;;;;;5047329;28;20217;-73
2022/08/04 03:00:13;;;;;;;3.80;2.97;;;23.70;71.60;;;;;;5056411;28;20259;-73
2022/08/04 03:02:58;;;;;;;5.43;4.00;;;23.70;72.20;;;;;;5040546;28;20629;-73
2022/08/04 03:05:52;;;;;;;9.80;3.70;;;23.60;72.60;;;;;;5044604;28;20265;-73
2022/08/04 03:08:55;;;;;;;6.30;3.43;;;23.60;72.50;;;;;;5063816;28;20214;-73
2022/08/04 03:11:44;;;;;;;7.47;4.47;;;23.60;72.40;;;;;;5044821;28;20311;-73
2022/08/04 03:14:29;;;;;;;11.43;3.83;;;23.50;72.50;;;;;;5048426;28;20236;-73
2022/08/04 03:17:26;;;;;;;3.93;3.53;;;23.50;72.70;;;;;;5044735;28;20217;-73
2022/08/04 03:20:11;;;;;;;6.53;3.37;;;23.50;72.80;;;;;;5060985;28;20237;-73
2022/08/04 03:23:03;;;;;;;5.17;3.63;;;23.40;72.70;;;;;;5045554;28;20199;-73
2022/08/04 03:26:01;;;;;;;3.70;3.17;;;23.40;73.30;;;;;;5059462;28;20555;-74
2022/08/04 03:28:59;;;;;;;5.67;3.40;;;23.30;73.10;;;;;;5039738;28;20222;-74
2022/08/04 03:31:41;;;;;;;5.83;4.03;;;23.30;73.10;;;;;;5042280;28;20596;-73
2022/08/04 03:34:38;;;;;;;7.90;4.30;;;23.30;73.70;;;;;;5044483;28;20214;-73
2022/08/04 03:37:17;;;;;;;9.97;4.40;;;23.30;74.10;;;;;;5052499;28;20321;-73
2022/08/04 03:40:15;;;;;;;4.73;4.20;;;23.20;74.50;;;;;;5042529;28;20226;-73
2022/08/04 03:43:20;;;;;;;6.77;4.27;;;23.20;74.60;;;;;;5061325;28;20286;-73
2022/08/04 03:46:29;;;;;;;4.73;3.90;;;23.10;74.70;;;;;;5044000;28;20229;-75
2022/08/04 03:49:50;;;;;;;4.23;3.80;;;23.10;74.30;;;;;;5047882;28;20280;-74
2022/08/04 03:55:35;;;;;;;5.00;4.53;;;23.00;73.40;;;;;;5040680;28;20211;-73
2022/08/04 03:58:20;;;;;;;4.97;4.47;;;23.00;73.90;;;;;;5041702;28;20632;-74
2022/08/04 04:01:21;;;;;;;5.50;4.17;;;23.00;74.00;;;;;;5048572;28;20227;-74
2022/08/04 04:04:26;;;;;;;9.17;4.33;;;22.90;74.00;;;;;;5046775;28;20200;-75
2022/08/04 04:07:33;;;;;;;5.10;4.63;;;22.90;74.10;;;;;;5044572;28;20206;-75
2022/08/04 04:10:35;;;;;;;6.40;4.93;;;22.90;74.70;;;;;;5043878;28;20280;-76
2022/08/04 04:13:34;;;;;;;7.53;4.43;;;22.90;75.00;;;;;;5039962;28;20666;-75
2022/08/04 04:16:04;;;;;;;7.67;5.10;;;22.80;74.70;;;;;;5046456;28;20225;-76
2022/08/04 04:18:43;;;;;;;9.83;5.23;;;22.80;74.90;;;;;;5053681;28;20207;-76
2022/08/04 04:21:29;;;;;;;5.60;4.73;;;22.80;75.10;;;;;;5041816;28;20229;-75
2022/08/04 04:24:05;;;;;;;7.53;5.00;;;22.80;75.30;;;;;;5049423;28;20199;-75
2022/08/04 04:26:55;;;;;;;9.07;5.23;;;22.80;75.40;;;;;;5069799;28;20216;-76
2022/08/04 04:29:50;;;;;;;8.23;4.47;;;22.90;75.80;;;;;;5043535;28;20268;-75
2022/08/04 04:32:40;;;;;;;8.20;4.87;;;22.90;75.80;;;;;;5062805;28;20207;-75
2022/08/04 04:35:19;;;;;;;5.50;5.00;;;22.90;75.20;;;;;;5052531;28;20292;-75
2022/08/04 04:37:55;;;;;;;6.23;5.20;;;22.90;74.80;;;;;;5066530;28;20289;-75
2022/08/04 04:40:36;;;;;;;7.27;5.17;;;22.90;74.70;;;;;;5055493;28;21080;-75
2022/08/04 04:43:33;;;;;;;6.13;4.80;;;22.90;74.80;;;;;;5060198;28;20198;-73
2022/08/04 04:46:26;;;;;;;5.80;5.23;;;22.90;75.20;;;;;;5042255;28;20214;-75
2022/08/04 04:49:16;;;;;;;6.10;5.50;;;23.00;75.90;;;;;;5051973;28;20211;-74
2022/08/04 04:52:12;;;;;;;10.43;5.40;;;23.00;76.30;;;;;;5048404;28;20207;-74
2022/08/04 04:54:58;;;;;;;5.47;4.93;;;23.10;76.50;;;;;;5047114;28;20202;-74
2022/08/04 04:57:29;;;;;;;5.40;5.00;;;23.20;76.20;;;;;;5044328;28;20275;-74
2022/08/04 05:00:17;;;;;;;5.73;5.07;;;23.30;76.10;;;;;;5050665;28;20240;-73
2022/08/04 05:02:56;;;;;;;6.20;4.07;;;23.40;76.00;;;;;;5053662;28;20649;-73
2022/08/04 05:05:46;;;;;;;4.50;4.10;;;23.50;75.50;;;;;;5056530;28;20211;-73
2022/08/04 05:08:22;;;;;;;8.47;4.57;;;23.60;74.90;;;;;;5053830;28;20278;-73
2022/08/04 05:11:39;;;;;;;5.33;3.70;;;23.70;74.50;;;;;;5046169;28;20198;-73
2022/08/04 05:14:18;;;;;;;5.80;3.23;;;23.70;74.10;;;;;;5047277;28;20609;-73
2022/08/04 05:17:29;;;;;;;6.57;3.00;;;23.90;73.50;;;;;;5044658;28;20317;-76
2022/08/04 05:20:07;;;;;;;2.87;2.57;;;24.00;72.10;;;;;;5048174;28;20242;-74
2022/08/04 05:22:54;;;;;;;2.93;2.63;;;24.10;71.10;;;;;;5047600;28;20207;-75
2022/08/04 05:25:46;;;;;;;6.40;2.20;;;24.20;70.20;;;;;;5033780;28;20643;-74
2022/08/04 05:28:35;;;;;;;9.87;2.10;;;24.30;69.10;;;;;;5047826;28;20214;-74
2022/08/04 05:31:10;;;;;;;3.70;2.00;;;24.50;68.40;;;;;;5053470;28;20205;-75
2022/08/04 05:33:46;;;;;;;2.37;2.13;;;24.80;67.90;;;;;;5048039;28;20658;-76
2022/08/04 05:36:20;;;;;;;2.07;1.87;;;25.00;67.00;;;;;;5050143;28;20535;-76
2022/08/04 05:39:11;;;;;;;2.13;1.93;;;25.20;66.50;;;;;;5048532;28;20216;-76
2022/08/04 05:41:40;;;;;;;2.00;1.73;;;25.40;66.00;;;;;;5049379;28;20218;-76
2022/08/04 05:44:19;;;;;;;5.40;1.93;;;25.70;65.40;;;;;;5056930;28;20252;-76
2022/08/04 05:46:56;;;;;;;4.40;2.17;;;25.90;65.00;;;;;;5045705;28;20206;-76
2022/08/04 05:49:27;;;;;;;4.23;2.27;;;26.10;64.60;;;;;;5046615;28;20218;-76
2022/08/04 05:52:00;;;;;;;4.90;1.97;;;26.20;64.00;;;;;;5047601;28;20689;-74
2022/08/04 05:54:32;;;;;;;2.23;1.97;;;26.30;63.80;;;;;;5049365;28;20258;-74
2022/08/04 05:57:01;;;;;;;4.50;2.30;;;26.40;63.30;;;;;;5053188;28;20323;-74
2022/08/04 05:59:30;;;;;;;6.03;2.50;;;26.60;62.60;;;;;;5051482;28;20243;-76
2022/08/04 06:02:00;;;;;;;2.30;2.07;;;26.70;61.70;;;;;;5045078;28;20220;-74
2022/08/04 06:04:32;;;;;;;7.80;2.40;;;26.90;61.10;;;;;;5050926;28;20202;-73
2022/08/04 06:06:59;;;;;;;3.43;2.20;;;27.00;60.70;;;;;;5052914;28;20789;-74
2022/08/04 06:09:26;;;;;;;2.83;2.10;;;27.10;60.00;;;;;;5060399;28;20195;-73
2022/08/04 06:11:58;;;;;;;3.50;2.30;;;27.20;59.50;;;;;;5048646;28;20198;-76
2022/08/04 06:14:46;;;;;;;4.67;2.30;;;27.30;59.30;;;;;;5053590;28;20206;-76
2022/08/04 06:17:20;;;;;;;3.43;2.63;;;27.40;58.60;;;;;;5050371;28;20210;-76
2022/08/04 06:20:09;;;;;;;5.20;2.17;;;27.60;58.60;;;;;;5045540;28;20226;-75
2022/08/04 06:23:01;;;;;;;5.57;2.50;;;27.70;58.20;;;;;;5044846;28;20230;-74
2022/08/04 06:25:32;;;;;;;4.53;2.30;;;27.80;58.20;;;;;;5064425;28;20214;-73
2022/08/04 06:28:04;;;;;;;5.10;2.20;;;28.00;58.40;;;;;;5041839;28;20198;-75
2022/08/04 06:30:32;;;;;;;3.07;2.17;;;28.10;57.80;;;;;;5065127;28;20546;-75
2022/08/04 06:33:02;;;;;;;6.03;2.00;;;28.20;56.40;;;;;;5059952;28;20230;-75
2022/08/04 06:35:32;;;;;;;5.33;2.53;;;28.30;56.40;;;;;;5052369;28;20211;-74
2022/08/04 06:38:01;;;;;;;4.77;2.13;;;28.40;55.60;;;;;;5042051;28;20214;-73
2022/08/04 06:40:30;;;;;;;6.43;2.70;;;28.50;55.80;;;;;;5060383;28;20672;-74
2022/08/04 06:43:05;;;;;;;3.93;2.27;;;28.60;55.50;;;;;;5047146;28;20314;-74
2022/08/04 06:45:36;;;;;;;15.07;2.80;;;28.80;55.40;;;;;;5047901;28;20195;-75
2022/08/04 06:48:05;;;;;;;7.77;2.40;;;28.90;54.70;;;;;;5045535;28;20298;-75
2022/08/04 06:50:36;;;;;;;9.27;2.90;;;29.00;54.50;;;;;;5048957;28;20210;-75
2022/08/04 06:53:25;;;;;;;6.73;2.13;;;29.20;54.30;;;;;;5056290;28;20657;-74
2022/08/04 06:55:53;;;;;;;5.73;2.50;;;29.40;54.10;;;;;;5052787;28;20229;-75
2022/08/04 06:58:22;;;;;;;10.33;3.20;;;29.50;53.80;;;;;;5049561;28;20285;-75
2022/08/04 07:00:50;;;;;;;4.43;2.33;;;29.60;52.20;;;;;;5061821;28;20239;-75
2022/08/04 07:03:18;;;;;;;4.33;2.70;;;29.70;51.90;;;;;;5044416;28;20599;-76
2022/08/04 07:05:47;;;;;;;7.73;2.10;;;29.70;51.70;;;;;;5050723;28;20198;-76
2022/08/04 07:08:15;;;;;;;6.57;2.40;;;29.80;51.90;;;;;;5042697;28;20199;-74
2022/08/04 07:10:44;;;;;;;6.23;2.50;;;29.80;51.70;;;;;;5044457;28;20190;-75
2022/08/04 07:13:12;;;;;;;8.17;2.50;;;29.90;51.30;;;;;;5052107;28;20712;-74
2022/08/04 07:15:43;;;;;;;7.67;2.37;;;30.00;51.90;;;;;;5045569;28;20203;-75
2022/08/04 07:18:11;;;;;;;6.30;2.67;;;30.20;51.80;;;;;;5045694;28;20213;-75
2022/08/04 07:20:45;;;;;;;6.77;2.50;;;30.40;51.20;;;;;;5042653;28;20297;-74
2022/08/04 07:23:18;;;;;;;2.83;2.10;;;30.50;50.50;;;;;;5043287;28;20213;-74
2022/08/04 07:25:51;;;;;;;3.00;2.40;;;30.70;50.00;;;;;;5035486;28;20210;-74
2022/08/04 07:28:39;;;;;;;3.53;2.60;;;30.80;50.00;;;;;;5055397;28;20202;-74
2022/08/04 07:31:10;;;;;;;3.30;2.20;;;31.00;49.20;;;;;;5044215;28;20290;-74
2022/08/04 07:33:59;;;;;;;3.47;2.30;;;31.20;48.00;;;;;;5041435;28;20644;-76
2022/08/04 07:36:48;;;;;;;7.73;2.90;;;31.30;48.60;;;;;;5043385;28;20209;-76
2022/08/04 07:39:17;;;;;;;5.70;2.67;;;31.40;49.20;;;;;;5032681;28;20229;-75
2022/08/04 07:41:55;;;;;;;8.77;2.40;;;31.60;49.20;;;;;;5041361;28;20206;-75
2022/08/04 07:44:24;;;;;;;4.83;2.23;;;31.80;48.70;;;;;;5050254;28;20222;-74
2022/08/04 07:46:51;;;;;;;4.40;2.23;;;31.90;48.20;;;;;;5046954;28;20201;-73
2022/08/04 07:49:20;;;;;;;5.07;2.00;;;32.10;47.30;;;;;;5043483;28;20290;-73
2022/08/04 07:52:07;;;;;;;5.77;2.50;;;32.30;47.40;;;;;;5053475;28;20215;-76
2022/08/04 07:54:35;;;;;;;4.17;2.33;;;32.50;46.00;;;;;;5045268;28;20655;-76
2022/08/04 07:57:02;;;;;;;6.57;1.90;;;32.60;45.20;;;;;;5043309;28;20203;-74
2022/08/04 07:59:29;;;;;;;2.20;1.77;;;32.70;44.30;;;;;;5050793;28;20238;-74
2022/08/04 08:02:00;;;;;;;3.57;1.97;;;32.80;43.50;;;;;;5048825;28;20270;-74
2022/08/04 08:04:28;;;;;;;4.20;1.60;;;33.00;43.90;;;;;;5044788;28;20207;-75
2022/08/04 08:06:56;;;;;;;6.90;1.90;;;33.10;43.00;;;;;;5053211;28;20198;-76
2022/08/04 08:09:24;;;;;;;4.20;1.70;;;33.20;43.70;;;;;;5053747;28;20629;-76
2022/08/04 08:11:53;;;;;;;2.70;1.80;;;33.40;43.30;;;;;;5050632;28;20210;-76
2022/08/04 08:14:41;;;;;;;3.73;1.67;;;33.50;41.80;;;;;;5034421;28;20257;-74
2022/08/04 08:17:08;;;;;;;1.47;1.37;;;33.70;42.20;;;;;;5042848;28;20261;-74
2022/08/04 08:19:35;;;;;;;3.27;1.40;;;33.80;42.50;;;;;;5048366;28;20195;-74
2022/08/04 08:22:04;;;;;;;1.60;1.50;;;33.90;41.90;;;;;;5051507;28;20194;-74
2022/08/04 08:24:35;;;;;;;3.10;1.50;;;34.10;40.20;;;;;;5050766;28;20199;-74
2022/08/04 08:27:03;;;;;;;1.70;1.50;;;34.20;40.30;;;;;;5052388;28;20263;-74
2022/08/04 08:29:33;;;;;;;2.57;1.70;;;34.30;40.50;;;;;;5049004;28;20198;-76
2022/08/04 08:32:03;;;;;;;2.97;1.50;;;34.40;40.60;;;;;;5055565;28;20260;-75
2022/08/04 08:34:36;;;;;;;2.87;1.47;;;34.50;40.40;;;;;;5041555;28;20294;-76
2022/08/04 08:37:08;;;;;;;2.67;1.50;;;34.70;39.90;;;;;;5050052;28;20521;-76
2022/08/04 08:39:51;;;;;;;5.50;1.83;;;34.80;38.50;;;;;;5058791;28;20205;-73
2022/08/04 08:42:39;;;;;;;1.20;1.10;;;34.90;37.80;;;;;;5047753;28;20287;-73
2022/08/04 08:45:44;;;;;;;3.90;1.50;;;35.00;37.60;;;;;;5046045;28;20199;-74
2022/08/04 08:48:49;;;;;;;3.53;1.53;;;35.10;37.90;;;;;;5063334;28;20291;-74
2022/08/04 08:51:25;;;;;;;2.50;1.30;;;35.20;36.30;;;;;;5039744;28;20202;-73
2022/08/04 08:54:28;;;;;;;3.73;1.50;;;35.20;37.30;;;;;;5052124;28;20611;-73
2022/08/04 08:57:32;;;;;;;3.80;1.97;;;35.30;37.00;;;;;;5035843;28;20285;-73
2022/08/04 09:00:25;;;;;;;3.33;1.40;;;35.40;36.80;;;;;;5043593;28;20242;-73
2022/08/04 09:03:26;;;;;;;1.63;1.53;;;35.50;36.30;;;;;;5062654;28;20215;-73
2022/08/04 09:06:11;;;;;;;5.20;1.30;;;35.70;35.70;;;;;;5050198;28;20199;-74
2022/08/04 09:09:00;;;;;;;2.08;1.90;;;35.70;35.20;;;;;;5046869;28;20205;-73
2022/08/04 09:11:36;;;;;;;1.70;1.33;;;35.70;35.70;;;;;;5043399;28;20613;-73
2022/08/04 09:14:13;;;;;;;1.60;1.47;;;35.90;35.00;;;;;;5041706;28;20242;-74
2022/08/04 09:16:55;;;;;;;2.80;1.43;;;35.90;35.10;;;;;;5052045;28;20211;-75
2022/08/04 09:19:44;;;;;;;4.23;1.53;;;35.90;35.60;;;;;;5027545;28;20206;-74
2022/08/04 09:22:36;;;;;;;1.70;1.60;;;36.10;35.70;;;;;;5045155;28;20211;-74
2022/08/04 09:25:19;;;;;;;1.60;1.47;;;36.30;35.40;;;;;;5056340;28;20634;-74
2022/08/04 09:27:54;;;;;;;3.67;1.40;;;36.40;33.70;;;;;;5039841;28;20671;-74
2022/08/04 09:30:30;;;;;;;4.47;1.77;;;36.40;34.90;;;;;;5047245;28;20421;-76
2022/08/04 09:33:21;;;;;;;2.38;1.27;;;36.50;35.00;;;;;;5043191;28;20267;-75
2022/08/04 09:36:22;;;;;;;1.80;1.52;;;36.60;34.50;;;;;;5059307;28;20245;-75
2022/08/04 09:39:18;;;;;;;1.73;1.52;;;36.70;34.10;;;;;;5051636;28;20216;-75
2022/08/04 09:42:09;;;;;;;2.50;1.50;;;36.70;33.70;;;;;;5042803;28;20673;-75
2022/08/04 09:45:03;;;;;;;1.55;1.45;;;36.70;34.20;;;;;;5044826;28;20219;-73
2022/08/04 09:48:07;;;;;;;1.40;1.30;;;36.80;33.00;;;;;;5040647;28;20257;-73
2022/08/04 09:50:39;;;;;;;3.40;1.77;;;36.80;32.50;;;;;;5054917;28;20281;-73
2022/08/04 09:53:44;;;;;;;3.67;1.30;;;36.70;33.60;;;;;;5045189;28;20289;-73
2022/08/04 09:56:31;;;;;;;5.88;1.33;;;36.80;33.80;;;;;;5051684;28;20285;-72
2022/08/04 09:59:01;;;;;;;1.33;1.30;;;36.90;32.80;;;;;;5057106;28;20617;-73
2022/08/04 10:01:30;;;;;;;1.23;1.23;;;36.90;33.20;;;;;;5058439;28;20214;-73
2022/08/04 10:04:04;;;;;;;2.50;1.33;;;37.00;33.10;;;;;;5043904;28;20645;-73
2022/08/04 10:07:01;;;;;;;1.50;1.35;;;36.90;33.20;;;;;;5062470;28;20213;-73
2022/08/04 10:09:51;;;;;;;2.93;1.50;;;37.00;33.20;;;;;;5056325;28;20203;-75
2022/08/04 10:12:27;;;;;;;1.45;1.35;;;37.20;33.20;;;;;;5053697;28;20286;-73
2022/08/04 10:15:15;;;;;;;2.28;1.60;;;37.40;33.20;;;;;;5044854;28;20201;-72
2022/08/04 10:18:10;;;;;;;1.20;1.08;;;37.60;33.20;;;;;;5044331;28;20199;-73
2022/08/04 10:20:55;;;;;;;6.28;1.45;;;37.80;33.30;;;;;;5046763;28;20215;-73
2022/08/04 10:23:58;;;;;;;1.45;1.33;;;38.00;33.40;;;;;;5045816;28;20226;-73
2022/08/04 10:26:49;;;;;;;1.50;1.40;;;38.20;32.70;;;;;;5057676;28;20513;-73
2022/08/04 10:29:44;;;;;;;1.60;1.50;;;38.30;32.30;;;;;;5047824;28;20206;-73
2022/08/04 10:32:14;;;;;;;4.97;1.15;;;38.40;32.20;;;;;;5043688;28;20289;-73
2022/08/04 10:35:08;;;;;;;3.80;1.67;;;38.40;32.40;;;;;;5046855;28;20202;-72
2022/08/04 10:38:03;;;;;;;2.08;1.40;;;38.50;32.40;;;;;;5043144;28;20294;-72
2022/08/04 10:40:36;;;;;;;3.78;1.67;;;38.60;32.50;;;;;;5047414;28;20218;-73
2022/08/04 10:43:34;;;;;;;2.75;1.65;;;38.70;32.10;;;;;;5036020;28;20625;-73
2022/08/04 10:46:13;;;;;;;2.67;1.75;;;38.70;32.30;;;;;;5024778;28;20250;-73
2022/08/04 10:48:50;;;;;;;6.38;1.50;;;38.70;32.00;;;;;;5040202;28;20210;-74
2022/08/04 10:51:26;;;;;;;4.30;1.60;;;38.70;31.90;;;;;;5042771;28;20215;-73
2022/08/04 10:54:01;;;;;;;2.80;1.30;;;38.80;32.10;;;;;;5055414;28;20202;-73
2022/08/04 10:56:32;;;;;;;5.45;2.00;;;38.70;31.30;;;;;;5042276;28;20210;-72
2022/08/04 10:59:05;;;;;;;2.55;1.50;;;38.70;31.40;;;;;;5039096;28;20218;-73
2022/08/04 11:01:37;;;;;;;1.77;1.65;;;38.60;31.80;;;;;;5048440;28;20212;-73
2022/08/04 11:04:34;;;;;;;2.95;1.80;;;38.50;31.90;;;;;;5048830;28;20211;-75
2022/08/04 11:07:02;;;;;;;2.30;1.85;;;38.50;32.30;;;;;;5040467;28;20300;-72
2022/08/04 11:09:32;;;;;;;6.65;1.55;;;38.50;31.90;;;;;;5047043;28;20199;-73
2022/08/04 11:12:14;;;;;;;6.63;1.88;;;38.50;32.10;;;;;;5044943;28;20297;-72
2022/08/04 11:14:58;;;;;;;1.95;1.35;;;38.60;32.20;;;;;;5041133;28;20198;-72
2022/08/04 11:17:32;;;;;;;2.97;1.50;;;38.60;30.50;;;;;;5046206;28;20294;-73
2022/08/04 11:20:11;;;;;;;3.13;1.73;;;38.30;31.00;;;;;;5040788;28;20603;-74
2022/08/04 11:23:22;;;;;;;6.55;1.60;;;38.20;31.70;;;;;;5045867;28;20358;-75
2022/08/04 11:26:00;;;;;;;2.03;1.75;;;38.10;32.10;;;;;;5062239;28;20210;-75
2022/08/04 11:28:55;;;;;;;2.75;1.42;;;38.20;32.00;;;;;;5050506;28;20198;-74
2022/08/04 11:31:34;;;;;;;1.50;1.40;;;38.30;32.40;;;;;;5057086;28;20234;-75
2022/08/04 11:34:22;;;;;;;1.92;1.75;;;38.50;32.50;;;;;;5043306;28;20211;-74
2022/08/04 11:37:07;;;;;;;4.50;1.70;;;38.60;31.40;;;;;;5054459;28;20209;-75
2022/08/04 11:40:02;;;;;;;2.38;1.65;;;38.80;31.50;;;;;;5050647;28;20568;-75
2022/08/04 11:42:37;;;;;;;4.03;1.60;;;39.00;31.50;;;;;;5054204;28;20246;-74
2022/08/04 11:45:06;;;;;;;1.77;1.67;;;39.10;31.00;;;;;;5058902;28;20198;-75
2022/08/04 11:48:03;;;;;;;1.50;1.40;;;39.10;30.80;;;;;;5054913;28;20206;-74
2022/08/04 11:50:43;;;;;;;4.18;1.70;;;39.20;30.90;;;;;;5057498;28;20214;-75
2022/08/04 11:53:16;;;;;;;2.42;1.77;;;39.10;31.10;;;;;;5046436;28;20202;-75
2022/08/04 11:55:49;;;;;;;6.18;1.83;;;39.10;30.70;;;;;;5045240;28;20203;-74
2022/08/04 11:58:36;;;;;;;2.78;1.90;;;39.10;30.60;;;;;;5061287;28;20207;-74
2022/08/04 12:01:12;;;;;;;1.38;1.27;;;39.10;30.30;;;;;;5049299;28;20574;-74
2022/08/04 12:03:58;;;;;;;2.13;1.40;;;39.10;31.00;;;;;;5046455;28;20199;-75
2022/08/04 12:06:48;;;;;;;2.15;1.50;;;39.20;30.90;;;;;;5045627;28;20196;-75
2022/08/04 12:09:44;;;;;;;1.45;1.40;;;39.30;30.20;;;;;;5047876;28;20537;-74
2022/08/04 12:12:33;;;;;;;2.70;1.65;;;39.20;30.10;;;;;;5055036;28;20787;-74
2022/08/04 12:15:26;;;;;;;2.22;1.60;;;39.20;31.00;;;;;;5043729;28;20233;-74
2022/08/04 12:18:09;;;;;;;3.38;1.50;;;39.20;30.00;;;;;;5052165;28;20215;-74
2022/08/04 12:20:54;;;;;;;4.75;1.50;;;39.30;29.80;;;;;;5047956;28;20562;-74
2022/08/04 12:23:34;;;;;;;4.45;1.80;;;39.30;30.00;;;;;;5042074;28;20246;-74
2022/08/04 12:26:08;;;;;;;1.98;1.77;;;39.20;30.00;;;;;;5046042;28;20241;-74
2022/08/04 12:28:39;;;;;;;1.90;1.67;;;39.20;29.90;;;;;;5053819;28;20198;-75
2022/08/04 12:31:32;;;;;;;3.47;1.60;;;39.10;29.60;;;;;;5052657;28;20545;-74
2022/08/04 12:34:23;;;;;;;2.25;1.58;;;39.00;30.10;;;;;;5037699;28;20330;-74
2022/08/04 12:37:08;;;;;;;2.83;1.30;;;39.00;30.30;;;;;;5060687;28;20218;-75
2022/08/04 12:39:38;;;;;;;1.38;1.27;;;39.10;30.30;;;;;;5068492;28;20288;-74
2022/08/04 12:42:57;;;;;;;1.58;1.38;;;39.20;30.30;;;;;;5065040;28;20218;-75
2022/08/04 12:45:27;;;;;;;2.05;1.40;;;39.20;30.20;;;;;;5071896;28;20202;-74
2022/08/04 12:47:57;;;;;;;6.13;1.70;;;39.30;30.20;;;;;;5076034;28;20266;-74
2022/08/04 12:50:25;;;;;;;3.60;1.70;;;39.30;30.00;;;;;;5061849;28;20207;-75
2022/08/04 12:52:56;;;;;;;2.70;1.42;;;39.40;29.90;;;;;;5066116;28;20200;-75
2022/08/04 12:55:32;;;;;;;1.67;1.58;;;39.40;30.40;;;;;;5048621;28;20308;-73
2022/08/04 12:58:10;;;;;;;5.95;1.52;;;39.40;30.40;;;;;;5070600;28;20229;-73
2022/08/04 13:00:39;;;;;;;1.80;1.25;;;39.50;30.30;;;;;;5078902;28;20225;-75
2022/08/04 13:03:11;;;;;;;4.80;1.42;;;39.50;29.70;;;;;;5094283;28;20212;-72
2022/08/04 13:05:40;;;;;;;2.47;1.30;;;39.50;30.00;;;;;;5086872;28;20208;-75
2022/08/04 13:08:12;;;;;;;3.58;1.80;;;39.40;30.50;;;;;;5085893;28;20209;-73
2022/08/04 13:10:45;;;;;;;1.30;1.20;;;39.40;30.20;;;;;;5090614;28;20485;-74
2022/08/04 13:13:23;;;;;;;4.25;1.40;;;39.50;30.00;;;;;;5082752;28;20604;-74
2022/08/04 13:16:01;;;;;;;2.88;1.27;;;39.40;29.00;;;;;;5086196;28;20213;-74
2022/08/04 13:18:33;;;;;;;1.60;1.50;;;39.20;29.40;;;;;;5093107;28;20220;-73
2022/08/04 13:21:17;;;;;;;2.88;1.80;;;39.10;29.90;;;;;;5099444;27;20304;-73
2022/08/04 13:23:51;;;;;;;1.63;1.20;;;39.00;30.00;;;;;;5085163;28;20266;-73
2022/08/04 13:27:08;;;;;;;2.10;1.60;;;39.00;29.10;;;;;;5083519;28;20653;-74
2022/08/04 13:29:44;;;;;;;1.33;1.23;;;38.70;29.30;;;;;;5081161;28;20666;-75
2022/08/04 13:32:28;;;;;;;1.55;1.40;;;38.60;29.80;;;;;;5095872;28;20202;-73
2022/08/04 13:34:58;;;;;;;1.98;1.35;;;38.40;29.70;;;;;;5106425;28;20197;-73
2022/08/04 13:37:33;;;;;;;1.88;1.45;;;38.30;30.10;;;;;;5102836;28;20219;-72
2022/08/04 13:40:08;;;;;;;2.45;1.42;;;38.30;30.00;;;;;;5090617;28;20279;-73
2022/08/04 13:42:39;;;;;;;6.32;1.60;;;38.20;30.00;;;;;;5088805;28;20217;-73
2022/08/04 13:45:07;;;;;;;2.25;1.20;;;38.20;29.50;;;;;;5090135;28;20306;-73
2022/08/04 13:47:37;;;;;;;2.35;1.25;;;38.10;29.90;;;;;;5089626;28;20189;-73
2022/08/04 13:50:13;;;;;;;5.85;1.92;;;38.10;30.30;;;;;;5087487;28;20202;-75
2022/08/04 13:52:42;;;;;;;9.30;1.70;;;38.10;31.10;;;;;;5096247;28;20209;-73
2022/08/04 13:55:24;;;;;;;3.90;1.48;;;38.20;30.60;;;;;;5078369;28;20566;-74
2022/08/04 13:58:07;;;;;;;1.60;1.30;;;38.30;30.00;;;;;;5085647;28;20668;-73